Time;durP1;ratioP1;P1;durP2;ratioP2;P2;SDS_P1;SDS_P2;PMS_P1;PMS_P2;Temp;Humidity;BMP_temperature;BMP_pressure;BME280_temperature;BME280_humidity;BME280_pressure;Samples;Min_cycle;Max_cycle;Signal;HPM_P1;HPM_P2
2023/05/01 00:00:13;;;;;;;11.53;7.13;;;7.30;1.00;;;;;;5061753;28;20436;-67
2023/05/01 00:02:38;;;;;;;15.43;8.77;;;7.30;1.00;;;;;;5060797;28;20449;-66
2023/05/01 00:05:06;;;;;;;12.97;8.27;;;7.30;1.00;;;;;;5060417;28;20763;-66
2023/05/01 00:07:32;;;;;;;9.03;8.13;;;7.30;1.00;;;;;;5072877;28;20169;-67
2023/05/01 00:09:57;;;;;;;16.03;9.40;;;7.30;1.00;;;;;;5072283;28;20884;-66
2023/05/01 00:12:23;;;;;;;9.50;8.07;;;7.30;1.00;;;;;;5062018;28;20911;-67
2023/05/01 00:14:49;;;;;;;9.20;8.27;;;7.30;1.00;;;;;;5061697;28;20202;-67
2023/05/01 00:17:15;;;;;;;9.00;8.30;;;7.30;1.00;;;;;;5060873;28;20434;-66
2023/05/01 00:19:41;;;;;;;12.67;8.53;;;7.30;1.00;;;;;;5052899;28;20926;-67
2023/05/01 00:22:07;;;;;;;19.87;9.70;;;7.30;1.00;;;;;;5062300;28;20209;-67
2023/05/01 00:24:32;;;;;;;10.47;9.27;;;7.30;1.00;;;;;;5071838;28;20257;-67
2023/05/01 00:26:58;;;;;;;12.77;8.20;;;7.30;1.00;;;;;;5075583;28;20943;-66
2023/05/01 00:29:26;;;;;;;9.07;8.17;;;7.40;1.00;;;;;;5065944;28;20682;-67
2023/05/01 00:31:53;;;;;;;12.03;8.07;;;7.40;1.00;;;;;;5052681;28;20292;-67
2023/05/01 00:34:19;;;;;;;18.13;9.23;;;7.40;1.00;;;;;;5053517;28;20957;-67
2023/05/01 00:36:45;;;;;;;11.43;8.90;;;7.40;1.00;;;;;;5068232;28;20511;-67
2023/05/01 00:39:11;;;;;;;10.83;7.77;;;7.40;1.00;;;;;;5059862;28;20176;-66
2023/05/01 00:41:36;;;;;;;9.30;8.10;;;7.30;1.00;;;;;;5051882;28;20538;-67
2023/05/01 00:44:02;;;;;;;12.47;9.10;;;7.30;1.00;;;;;;5073247;28;20853;-67
2023/05/01 00:46:29;;;;;;;13.90;8.17;;;7.30;1.00;;;;;;5070212;28;20425;-67
2023/05/01 00:48:57;;;;;;;11.10;7.90;;;7.30;1.00;;;;;;5054404;28;20391;-66
2023/05/01 00:51:23;;;;;;;14.50;8.90;;;7.30;1.00;;;;;;5059675;28;20429;-67
2023/05/01 00:53:49;;;;;;;14.47;9.07;;;7.20;1.00;;;;;;5053220;28;20916;-66
2023/05/01 00:56:16;;;;;;;11.67;8.37;;;7.20;1.00;;;;;;5053592;28;20432;-66
2023/05/01 00:58:42;;;;;;;10.00;8.00;;;7.20;1.00;;;;;;5060892;28;20454;-67
2023/05/01 01:01:08;;;;;;;8.43;7.40;;;7.20;1.00;;;;;;5056313;28;20429;-66
2023/05/01 01:03:34;;;;;;;12.33;7.80;;;7.20;1.00;;;;;;5053312;28;20526;-67
2023/05/01 01:06:05;;;;;;;12.60;8.70;;;7.10;1.00;;;;;;5053636;28;20516;-66
2023/05/01 01:08:57;;;;;;;8.23;6.60;;;7.20;1.00;;;;;;5052931;28;20190;-67
2023/05/01 01:11:46;;;;;;;7.67;6.87;;;7.10;1.00;;;;;;5050287;28;20414;-67
2023/05/01 01:14:26;;;;;;;8.13;7.03;;;7.10;1.00;;;;;;5046627;28;20815;-66
2023/05/01 01:16:58;;;;;;;11.60;6.73;;;7.10;1.00;;;;;;5052416;28;20471;-66
2023/05/01 01:20:09;;;;;;;10.07;7.00;;;7.10;1.00;;;;;;5053314;28;20395;-67
2023/05/01 01:22:38;;;;;;;10.27;6.67;;;7.10;1.00;;;;;;5037913;28;20809;-66
2023/05/01 01:25:32;;;;;;;6.87;6.10;;;7.10;1.00;;;;;;5064851;28;20445;-67
2023/05/01 01:28:30;;;;;;;9.00;6.93;;;7.10;1.00;;;;;;5052171;28;20455;-65
2023/05/01 01:31:03;;;;;;;12.30;6.97;;;7.10;1.00;;;;;;5055710;28;20921;-66
2023/05/01 01:33:49;;;;;;;7.87;6.00;;;7.00;1.00;;;;;;5053346;28;20453;-67
2023/05/01 01:36:20;;;;;;;7.10;6.13;;;7.00;1.00;;;;;;5060657;28;20928;-66
2023/05/01 01:39:06;;;;;;;7.03;6.47;;;6.90;1.00;;;;;;5056954;28;20425;-67
2023/05/01 01:41:34;;;;;;;11.47;7.37;;;6.90;1.00;;;;;;5062656;28;20451;-66
2023/05/01 01:44:05;;;;;;;7.57;6.70;;;6.90;1.00;;;;;;5073329;28;20955;-66
2023/05/01 01:46:36;;;;;;;9.37;7.40;;;6.90;1.00;;;;;;5056981;28;20401;-67
2023/05/01 01:49:08;;;;;;;6.40;5.80;;;6.80;1.00;;;;;;5072512;28;20477;-66
2023/05/01 01:51:39;;;;;;;7.97;6.83;;;6.80;1.00;;;;;;5073793;28;20459;-67
2023/05/01 01:54:06;;;;;;;9.63;7.53;;;6.80;1.00;;;;;;5073338;28;20456;-66
2023/05/01 01:56:35;;;;;;;7.43;5.90;;;6.70;1.00;;;;;;5057136;28;20524;-67
2023/05/01 01:59:03;;;;;;;7.03;6.30;;;6.70;1.00;;;;;;5057060;28;20429;-66
2023/05/01 02:01:29;;;;;;;6.67;5.77;;;6.60;1.00;;;;;;5055568;28;20417;-66
2023/05/01 02:03:57;;;;;;;9.33;6.60;;;6.70;1.00;;;;;;5060249;28;20988;-66
2023/05/01 02:06:24;;;;;;;8.43;6.30;;;6.70;1.00;;;;;;5056470;28;20827;-66
2023/05/01 02:08:50;;;;;;;8.00;7.20;;;6.70;1.00;;;;;;5059145;28;20789;-67
2023/05/01 02:11:19;;;;;;;7.77;7.07;;;6.70;1.00;;;;;;5064270;28;20469;-67
2023/05/01 02:13:48;;;;;;;7.47;6.73;;;6.60;1.00;;;;;;5056356;28;20492;-67
2023/05/01 02:16:15;;;;;;;9.53;6.57;;;6.50;1.00;;;;;;5056725;28;20638;-67
2023/05/01 02:18:42;;;;;;;11.43;6.40;;;6.50;1.00;;;;;;5056532;28;20428;-67
2023/05/01 02:21:11;;;;;;;6.93;5.90;;;6.50;1.00;;;;;;5062574;28;20463;-67
2023/05/01 02:23:37;;;;;;;9.90;6.07;;;6.50;1.00;;;;;;5074123;28;20588;-66
2023/05/01 02:26:04;;;;;;;9.07;7.20;;;6.50;1.00;;;;;;5055688;28;20488;-66
2023/05/01 02:28:30;;;;;;;8.93;6.10;;;6.50;1.00;;;;;;5056514;28;20499;-66
2023/05/01 02:30:57;;;;;;;8.67;6.00;;;6.50;1.00;;;;;;5055284;28;20429;-66
2023/05/01 02:33:22;;;;;;;19.23;6.03;;;6.50;1.00;;;;;;5055686;28;20906;-66
2023/05/01 02:35:48;;;;;;;8.40;6.60;;;6.50;1.00;;;;;;5073062;28;20431;-66
2023/05/01 02:38:15;;;;;;;7.20;5.97;;;6.40;1.00;;;;;;5074968;28;20175;-66
2023/05/01 02:40:45;;;;;;;10.00;6.17;;;6.40;1.00;;;;;;5071883;28;20423;-66
2023/05/01 02:43:15;;;;;;;10.00;6.27;;;6.40;1.00;;;;;;5054401;28;20453;-66
2023/05/01 02:45:42;;;;;;;7.40;5.57;;;6.40;1.00;;;;;;5056121;28;20782;-66
2023/05/01 02:48:12;;;;;;;7.10;6.27;;;6.30;1.00;;;;;;5057574;28;20571;-66
2023/05/01 02:50:41;;;;;;;6.33;5.73;;;6.30;1.00;;;;;;5065835;28;20487;-67
2023/05/01 02:53:07;;;;;;;7.57;6.20;;;6.30;1.00;;;;;;5055346;28;20598;-67
2023/05/01 02:55:34;;;;;;;15.07;6.93;;;6.30;1.00;;;;;;5055228;28;20551;-67
2023/05/01 02:58:00;;;;;;;10.53;6.27;;;6.30;1.00;;;;;;5058548;28;20400;-66
2023/05/01 03:00:26;;;;;;;8.80;6.33;;;6.30;1.00;;;;;;5071148;28;20554;-66
2023/05/01 03:02:52;;;;;;;6.90;6.17;;;6.20;1.00;;;;;;5054595;28;20234;-66
2023/05/01 03:05:18;;;;;;;6.00;5.43;;;6.20;1.00;;;;;;5061928;28;20917;-66
2023/05/01 03:07:45;;;;;;;8.60;6.37;;;6.10;1.00;;;;;;5057492;28;20182;-66
2023/05/01 03:10:10;;;;;;;8.07;6.10;;;6.10;1.00;;;;;;5073712;28;20432;-66
2023/05/01 03:12:36;;;;;;;9.40;5.63;;;6.20;1.00;;;;;;5055253;28;20849;-66
2023/05/01 03:15:02;;;;;;;10.23;5.83;;;6.20;1.00;;;;;;5064065;28;20214;-66
2023/05/01 03:17:28;;;;;;;7.70;6.30;;;6.30;1.00;;;;;;5074978;28;20158;-67
2023/05/01 03:19:54;;;;;;;8.00;6.07;;;6.30;1.00;;;;;;5054517;28;20182;-67
2023/05/01 03:22:20;;;;;;;6.63;5.63;;;6.30;1.00;;;;;;5062505;28;20493;-66
2023/05/01 03:24:46;;;;;;;6.90;6.27;;;6.30;1.00;;;;;;5066721;28;20831;-66
2023/05/01 03:27:12;;;;;;;6.77;5.90;;;6.30;1.00;;;;;;5054863;28;20634;-66
2023/05/01 03:29:38;;;;;;;12.83;6.03;;;6.30;1.00;;;;;;5060489;28;20433;-66
2023/05/01 03:32:04;;;;;;;6.80;6.10;;;6.30;1.00;;;;;;5054958;28;20202;-67
2023/05/01 03:34:30;;;;;;;7.60;6.07;;;6.30;1.00;;;;;;5074636;28;20209;-66
2023/05/01 03:36:55;;;;;;;8.53;5.90;;;6.30;1.00;;;;;;5074478;28;20400;-67
2023/05/01 03:39:21;;;;;;;6.70;5.70;;;6.30;1.00;;;;;;5055068;28;20186;-66
2023/05/01 03:41:47;;;;;;;10.20;5.40;;;6.20;1.00;;;;;;5043585;28;20232;-66
2023/05/01 03:44:13;;;;;;;29.43;16.63;;;6.20;1.00;;;;;;5066866;28;20447;-67
2023/05/01 03:46:39;;;;;;;8.67;6.97;;;6.20;1.00;;;;;;5054779;28;20693;-66
2023/05/01 03:49:05;;;;;;;7.23;5.47;;;6.20;1.00;;;;;;5054066;28;20513;-67
2023/05/01 03:51:31;;;;;;;10.27;5.00;;;6.20;1.00;;;;;;5053190;28;20432;-66
2023/05/01 03:53:57;;;;;;;10.60;6.30;;;6.20;1.00;;;;;;5073904;28;20457;-67
2023/05/01 03:56:24;;;;;;;7.50;5.73;;;6.20;1.00;;;;;;5074356;28;20479;-66
2023/05/01 03:58:51;;;;;;;12.73;6.30;;;6.20;1.00;;;;;;5072835;28;20432;-66
2023/05/01 04:01:17;;;;;;;11.30;5.53;;;6.20;1.00;;;;;;5067563;28;20459;-66
2023/05/01 04:03:43;;;;;;;5.90;5.40;;;6.20;1.00;;;;;;5073737;28;20457;-67
2023/05/01 04:06:11;;;;;;;10.40;5.67;;;6.30;1.00;;;;;;5072981;28;20464;-67
2023/05/01 04:08:37;;;;;;;8.50;4.97;;;6.30;1.00;;;;;;5051656;28;20210;-67
2023/05/01 04:11:03;;;;;;;8.77;6.93;;;6.30;1.00;;;;;;5063100;28;20476;-67
2023/05/01 04:13:28;;;;;;;9.53;5.13;;;6.30;1.00;;;;;;5075600;28;20217;-67
2023/05/01 04:15:56;;;;;;;5.80;5.23;;;6.30;1.00;;;;;;5065925;28;20237;-66
2023/05/01 04:18:22;;;;;;;9.70;5.50;;;6.40;1.00;;;;;;5054615;28;20182;-67
2023/05/01 04:20:47;;;;;;;6.97;5.70;;;6.40;1.00;;;;;;5053993;28;20429;-66
2023/05/01 04:23:13;;;;;;;5.87;5.30;;;6.50;1.00;;;;;;5053666;28;20195;-67
2023/05/01 04:25:39;;;;;;;6.40;4.60;;;6.60;1.00;;;;;;5058008;28;20634;-66
2023/05/01 04:28:05;;;;;;;6.67;5.73;;;6.60;1.00;;;;;;5057961;28;20186;-66
2023/05/01 04:30:33;;;;;;;6.17;5.57;;;6.50;1.00;;;;;;5060000;28;20201;-67
2023/05/01 04:32:59;;;;;;;7.67;5.60;;;6.60;1.00;;;;;;5073351;28;20232;-66
2023/05/01 04:35:24;;;;;;;7.07;5.53;;;6.60;1.00;;;;;;5070758;28;20430;-66
2023/05/01 04:37:51;;;;;;;10.40;6.27;;;6.70;1.00;;;;;;5067055;28;20297;-66
2023/05/01 04:40:16;;;;;;;8.13;5.07;;;6.80;1.00;;;;;;5061102;28;20178;-67
2023/05/01 04:42:42;;;;;;;9.40;5.97;;;6.80;1.00;;;;;;5053735;28;20512;-66
2023/05/01 04:45:08;;;;;;;6.13;5.23;;;6.80;1.00;;;;;;5068608;28;20190;-66
2023/05/01 04:47:34;;;;;;;6.10;4.87;;;6.80;1.00;;;;;;5035538;28;20453;-66
2023/05/01 04:50:00;;;;;;;4.83;4.43;;;6.90;1.00;;;;;;5052944;28;20412;-66
2023/05/01 04:52:26;;;;;;;6.60;4.73;;;7.00;1.00;;;;;;5050894;28;20207;-67
2023/05/01 04:54:51;;;;;;;7.83;5.23;;;7.00;1.00;;;;;;5064084;28;20237;-67
2023/05/01 04:57:17;;;;;;;10.40;4.77;;;7.00;1.00;;;;;;5071925;28;20504;-67
2023/05/01 04:59:43;;;;;;;5.63;5.03;;;7.10;1.00;;;;;;5053051;28;20213;-67
2023/05/01 05:02:09;;;;;;;8.93;5.10;;;7.10;1.00;;;;;;5072322;28;20452;-67
2023/05/01 05:04:37;;;;;;;5.37;4.87;;;7.10;1.00;;;;;;5064786;28;20210;-67
2023/05/01 05:07:03;;;;;;;6.47;4.77;;;7.20;1.00;;;;;;5052717;28;20199;-67
2023/05/01 05:09:28;;;;;;;5.53;5.03;;;7.20;1.00;;;;;;5062094;28;20440;-67
2023/05/01 05:11:54;;;;;;;7.30;4.83;;;7.20;1.00;;;;;;5053502;28;20273;-67
2023/05/01 05:14:20;;;;;;;5.93;4.60;;;7.20;1.00;;;;;;5067038;28;20186;-67
2023/05/01 05:16:46;;;;;;;4.73;4.43;;;7.20;1.00;;;;;;5074435;28;20686;-69
2023/05/01 05:19:12;;;;;;;8.60;5.10;;;7.20;1.00;;;;;;5066144;28;20446;-67
2023/05/01 05:21:37;;;;;;;9.20;5.00;;;7.30;1.00;;;;;;5059578;28;20175;-66
2023/05/01 05:24:03;;;;;;;4.87;4.50;;;7.40;1.00;;;;;;5060277;28;20456;-68
2023/05/01 05:26:29;;;;;;;7.93;4.90;;;7.40;1.00;;;;;;5074873;28;20182;-67
2023/05/01 05:28:55;;;;;;;7.30;5.50;;;7.50;1.00;;;;;;5075645;28;20178;-66
2023/05/01 05:31:20;;;;;;;10.07;5.53;;;7.60;1.00;;;;;;5073435;28;20170;-67
2023/05/01 05:33:46;;;;;;;7.50;4.63;;;7.70;1.00;;;;;;5071255;28;20203;-67
2023/05/01 05:36:12;;;;;;;8.20;4.80;;;7.70;1.00;;;;;;5057554;28;20401;-67
2023/05/01 05:38:39;;;;;;;4.70;4.10;;;7.80;1.00;;;;;;5073643;28;20179;-67
2023/05/01 05:41:05;;;;;;;5.93;4.40;;;7.90;1.00;;;;;;5068322;28;20512;-67
2023/05/01 05:43:31;;;;;;;6.17;5.00;;;7.90;1.00;;;;;;5064273;28;20430;-67
2023/05/01 05:45:58;;;;;;;8.70;5.03;;;8.00;1.00;;;;;;5065359;28;20171;-67
2023/05/01 05:48:26;;;;;;;6.13;4.13;;;8.10;1.00;;;;;;5076342;28;20366;-67
2023/05/01 05:50:52;;;;;;;5.07;4.57;;;8.20;1.00;;;;;;5068263;28;20422;-67
2023/05/01 05:53:19;;;;;;;4.63;3.90;;;8.30;1.00;;;;;;5055858;28;20441;-67
2023/05/01 05:55:48;;;;;;;6.40;4.60;;;8.20;1.00;;;;;;5065580;28;20762;-67
2023/05/01 05:58:18;;;;;;;6.57;5.27;;;8.30;1.00;;;;;;5076253;28;20385;-67
2023/05/01 06:00:48;;;;;;;4.90;4.47;;;8.40;1.00;;;;;;5075511;28;20804;-66
2023/05/01 06:03:15;;;;;;;7.00;4.60;;;8.40;1.00;;;;;;5076633;28;20421;-67
2023/05/01 06:05:44;;;;;;;6.43;4.93;;;8.50;1.00;;;;;;5075923;28;20418;-66
2023/05/01 06:08:10;;;;;;;4.87;4.43;;;8.50;1.00;;;;;;5076412;28;20389;-67
2023/05/01 06:10:38;;;;;;;10.13;4.90;;;8.60;1.00;;;;;;5074361;28;20412;-66
2023/05/01 06:13:07;;;;;;;10.87;5.17;;;8.70;1.00;;;;;;5075463;28;20429;-66
2023/05/01 06:15:33;;;;;;;4.80;4.17;;;8.80;1.00;;;;;;5074508;28;20807;-67
2023/05/01 06:17:59;;;;;;;4.67;4.17;;;8.80;1.00;;;;;;5074966;28;20466;-66
2023/05/01 06:20:25;;;;;;;7.83;4.90;;;8.90;1.00;;;;;;5073020;28;21263;-67
2023/05/01 06:22:51;;;;;;;5.97;4.53;;;8.90;1.00;;;;;;5073843;28;20231;-67
2023/05/01 06:25:19;;;;;;;5.40;4.20;;;9.00;1.00;;;;;;5075044;28;20533;-66
2023/05/01 06:27:45;;;;;;;8.33;4.87;;;9.20;1.00;;;;;;5073605;28;20244;-67
2023/05/01 06:30:11;;;;;;;5.63;4.20;;;9.20;1.00;;;;;;5057937;28;20452;-67
2023/05/01 06:32:37;;;;;;;5.20;4.57;;;9.30;1.00;;;;;;5073486;28;20216;-67
2023/05/01 06:35:03;;;;;;;5.03;4.50;;;9.30;1.00;;;;;;5075541;28;20232;-66
2023/05/01 06:37:29;;;;;;;6.30;4.93;;;9.40;1.00;;;;;;5074940;28;20632;-67
2023/05/01 06:39:55;;;;;;;5.00;4.30;;;9.50;1.00;;;;;;5074388;28;20496;-67
2023/05/01 06:42:20;;;;;;;5.10;4.63;;;9.60;1.00;;;;;;5074068;28;20182;-68
2023/05/01 06:44:46;;;;;;;4.73;4.20;;;9.70;1.00;;;;;;5056683;28;20178;-67
2023/05/01 06:47:12;;;;;;;4.63;4.23;;;9.70;1.00;;;;;;5073744;28;20174;-67
2023/05/01 06:49:38;;;;;;;4.17;3.70;;;9.80;1.00;;;;;;5074453;28;20170;-68
2023/05/01 06:52:04;;;;;;;3.90;3.60;;;9.90;1.00;;;;;;5073480;28;20509;-67
2023/05/01 06:54:30;;;;;;;7.53;4.37;;;10.00;1.00;;;;;;5056371;28;20316;-66
2023/05/01 06:56:55;;;;;;;4.20;3.80;;;10.10;1.00;;;;;;5073997;28;20433;-67
2023/05/01 06:59:21;;;;;;;5.50;3.60;;;10.10;1.00;;;;;;5074326;28;20457;-67
2023/05/01 07:01:47;;;;;;;9.83;4.33;;;10.20;1.00;;;;;;5071870;28;20170;-67
2023/05/01 07:04:12;;;;;;;4.53;4.13;;;10.20;1.00;;;;;;5074213;28;20559;-67
2023/05/01 07:06:38;;;;;;;6.57;4.70;;;10.30;1.00;;;;;;5074099;28;20737;-68
2023/05/01 07:09:04;;;;;;;8.83;4.90;;;10.40;1.00;;;;;;5073934;28;20169;-68
2023/05/01 07:11:31;;;;;;;4.00;3.60;;;10.50;1.00;;;;;;5073071;28;20239;-69
2023/05/01 07:13:57;;;;;;;9.53;4.77;;;10.60;1.00;;;;;;5034765;28;1146560;-68
2023/05/01 07:16:23;;;;;;;4.73;4.00;;;10.70;1.00;;;;;;5073884;28;20174;-67
2023/05/01 07:18:49;;;;;;;7.47;4.30;;;10.80;1.00;;;;;;5074970;28;20917;-67
2023/05/01 07:21:14;;;;;;;9.50;4.53;;;10.90;1.00;;;;;;5073843;28;20371;-68
2023/05/01 07:23:40;;;;;;;4.63;4.23;;;10.90;1.00;;;;;;5056849;28;20190;-67
2023/05/01 07:26:06;;;;;;;4.37;3.80;;;11.00;1.00;;;;;;5057168;28;20201;-67
2023/05/01 07:28:32;;;;;;;5.00;4.50;;;11.10;1.00;;;;;;5074784;28;20741;-67
2023/05/01 07:30:58;;;;;;;6.20;4.20;;;11.10;1.00;;;;;;5072833;28;20205;-67
2023/05/01 07:33:24;;;;;;;4.90;3.80;;;11.20;99.90;;;;;;5074660;28;20189;-68
2023/05/01 07:35:51;;;;;;;4.47;4.07;;;11.10;99.90;;;;;;5073316;28;20399;-67
2023/05/01 07:38:17;;;;;;;5.87;3.97;;;11.20;99.90;;;;;;5074409;28;20363;-67
2023/05/01 07:40:42;;;;;;;7.07;3.97;;;11.30;1.00;;;;;;5055697;28;20851;-66
2023/05/01 07:43:11;;;;;;;5.30;4.13;;;11.40;1.00;;;;;;5074525;28;20499;-67
2023/05/01 07:45:41;;;;;;;4.83;3.40;;;11.40;99.90;;;;;;5073707;28;20182;-68
2023/05/01 07:48:07;;;;;;;8.20;4.40;;;11.50;99.90;;;;;;5074419;28;20909;-67
2023/05/01 07:50:32;;;;;;;4.63;3.73;;;11.60;99.90;;;;;;5073390;28;20401;-67
2023/05/01 07:52:58;;;;;;;4.70;3.93;;;11.80;99.90;;;;;;5074751;28;20638;-68
2023/05/01 07:55:24;;;;;;;8.77;4.37;;;11.80;99.90;;;;;;5073454;28;20201;-69
2023/05/01 07:57:50;;;;;;;5.50;4.23;;;11.90;99.90;;;;;;5074130;28;20168;-68
2023/05/01 08:00:17;;;;;;;6.40;3.63;;;12.00;99.90;;;;;;5072639;28;20450;-67
2023/05/01 08:02:43;;;;;;;10.40;4.13;;;12.10;99.90;;;;;;5074265;28;20770;-68
2023/05/01 08:05:09;;;;;;;6.83;3.70;;;12.30;99.90;;;;;;5056318;28;20375;-67
2023/05/01 08:07:34;;;;;;;5.67;3.43;;;12.40;99.90;;;;;;5074000;28;20438;-69
2023/05/01 08:10:00;;;;;;;4.70;4.00;;;12.50;99.90;;;;;;5073416;28;20888;-70
2023/05/01 08:12:27;;;;;;;3.47;3.17;;;12.50;99.90;;;;;;5069601;28;20330;-68
2023/05/01 08:14:53;;;;;;;5.07;3.83;;;12.60;99.90;;;;;;5054270;28;20206;-69
2023/05/01 08:17:19;;;;;;;6.53;4.40;;;12.80;99.90;;;;;;5053852;28;20399;-69
2023/05/01 08:19:45;;;;;;;4.70;4.20;;;12.90;99.90;;;;;;5035789;28;20205;-68
2023/05/01 08:22:13;;;;;;;5.93;4.17;;;12.90;99.90;;;;;;5035040;28;20439;-67
2023/05/01 08:24:40;;;;;;;5.30;4.87;;;13.00;99.90;;;;;;5035999;28;20786;-69
2023/05/01 08:27:06;;;;;;;4.77;3.90;;;13.10;99.90;;;;;;5068047;28;20470;-68
2023/05/01 08:29:32;;;;;;;5.17;3.77;;;13.20;99.90;;;;;;5072439;28;20846;-67
2023/05/01 08:31:57;;;;;;;3.80;3.50;;;13.20;99.90;;;;;;5073538;28;20175;-68
2023/05/01 08:34:23;;;;;;;8.83;4.20;;;13.40;99.90;;;;;;5071865;28;20229;-67
2023/05/01 08:36:49;;;;;;;7.57;3.70;;;13.50;99.90;;;;;;5073729;28;20170;-67
2023/05/01 08:39:15;;;;;;;5.53;3.97;;;13.60;99.90;;;;;;5055557;28;20577;-69
2023/05/01 08:41:45;;;;;;;6.77;3.63;;;13.80;99.90;;;;;;5072455;28;20521;-68
2023/05/01 08:44:14;;;;;;;4.53;3.87;;;14.00;99.90;;;;;;5073661;28;20166;-68
2023/05/01 08:47:06;;;;;;;5.27;3.30;;;13.90;99.90;;;;;;5073561;28;20400;-68
2023/05/01 08:49:36;;;;;;;3.97;3.30;;;14.00;99.90;;;;;;5072622;28;20431;-68
2023/05/01 08:52:05;;;;;;;6.10;3.17;;;14.10;99.90;;;;;;5071390;28;20404;-68
2023/05/01 08:54:32;;;;;;;4.43;4.03;;;14.20;99.90;;;;;;5073308;28;20459;-68
2023/05/01 08:57:02;;;;;;;10.50;3.20;;;14.30;99.90;;;;;;5074158;28;20399;-69
2023/05/01 08:59:30;;;;;;;3.47;3.27;;;14.30;99.90;;;;;;5073344;28;20393;-68
2023/05/01 09:02:04;;;;;;;5.73;3.83;;;14.40;99.90;;;;;;5072241;28;20389;-69
2023/05/01 09:04:40;;;;;;;4.30;3.40;;;14.40;99.90;;;;;;5071362;28;20459;-68
2023/05/01 09:07:06;;;;;;;5.50;4.07;;;14.70;99.90;;;;;;5072443;28;20971;-68
2023/05/01 09:09:32;;;;;;;5.60;3.33;;;14.90;99.90;;;;;;5072821;28;20396;-66
2023/05/01 09:12:03;;;;;;;4.20;3.80;;;15.20;99.90;;;;;;5072147;28;20815;-65
2023/05/01 09:14:31;;;;;;;4.73;3.20;;;15.60;99.90;;;;;;5073101;28;20444;-66
2023/05/01 09:16:57;;;;;;;5.03;3.30;;;15.90;99.90;;;;;;5073034;28;20415;-66
2023/05/01 09:19:24;;;;;;;3.77;3.17;;;16.20;99.90;;;;;;5072794;28;20943;-67
2023/05/01 09:21:51;;;;;;;3.27;2.70;;;16.50;99.90;;;;;;5072457;28;20167;-66
2023/05/01 09:24:17;;;;;;;4.43;3.40;;;16.50;99.90;;;;;;5073076;28;20409;-66
2023/05/01 09:26:43;;;;;;;3.37;3.07;;;16.60;99.90;;;;;;5072016;28;20411;-66
2023/05/01 09:29:09;;;;;;;3.63;2.93;;;16.80;99.90;;;;;;5072913;28;20523;-67
2023/05/01 09:31:35;;;;;;;4.97;3.20;;;17.20;99.90;;;;;;5072003;28;20416;-67
2023/05/01 09:34:02;;;;;;;4.70;3.27;;;17.50;99.90;;;;;;5072338;28;20678;-66
2023/05/01 09:36:32;;;;;;;5.83;3.67;;;17.80;99.90;;;;;;5072350;28;20507;-66
2023/05/01 09:39:00;;;;;;;4.07;2.70;;;18.00;99.90;;;;;;5072777;28;20404;-67
2023/05/01 09:41:26;;;;;;;4.47;3.00;;;18.20;99.90;;;;;;5072111;28;20392;-67
2023/05/01 09:43:54;;;;;;;4.57;3.07;;;18.20;99.90;;;;;;5072528;28;20759;-67
2023/05/01 09:46:21;;;;;;;9.33;4.30;;;18.10;99.90;;;;;;5071833;28;20460;-66
2023/05/01 09:48:54;;;;;;;5.40;2.77;;;18.20;99.90;;;;;;5072757;28;20454;-68
2023/05/01 09:51:27;;;;;;;4.07;2.90;;;18.20;99.90;;;;;;5072002;28;20404;-66
2023/05/01 09:53:57;;;;;;;4.50;2.43;;;18.50;99.90;;;;;;5072920;28;20809;-67
2023/05/01 09:56:25;;;;;;;4.77;3.10;;;18.50;99.90;;;;;;5072664;28;20397;-66
2023/05/01 09:58:52;;;;;;;3.10;2.90;;;18.50;99.90;;;;;;5075470;28;20730;-67
2023/05/01 10:01:39;;;;;;;5.87;3.13;;;18.60;99.90;;;;;;5074073;28;20782;-70
2023/05/01 10:04:05;;;;;;;5.60;3.40;;;18.80;99.90;;;;;;5075687;28;20444;-68
2023/05/01 10:06:31;;;;;;;10.20;3.30;;;19.20;99.90;;;;;;5075292;28;20842;-69
2023/05/01 10:08:57;;;;;;;6.20;2.80;;;19.40;99.90;;;;;;5076005;28;20404;-70
2023/05/01 10:11:23;;;;;;;2.73;2.53;;;19.50;99.90;;;;;;5075543;28;20749;-70
2023/05/01 10:14:08;;;;;;;7.07;2.93;;;19.70;99.90;;;;;;5075141;28;20233;-71
2023/05/01 10:16:36;;;;;;;6.50;2.73;;;20.30;99.90;;;;;;5075661;28;20170;-70
2023/05/01 10:19:02;;;;;;;4.90;2.57;;;21.10;99.90;;;;;;5076145;28;20468;-70
2023/05/01 10:21:29;;;;;;;3.43;2.10;;;21.50;99.90;;;;;;5057382;28;20912;-69
2023/05/01 10:23:55;;;;;;;4.33;2.70;;;21.30;99.90;;;;;;5075700;28;20439;-71
2023/05/01 10:26:22;;;;;;;4.27;2.33;;;21.20;99.90;;;;;;5075847;28;20412;-71
2023/05/01 10:28:48;;;;;;;4.40;2.60;;;21.60;99.90;;;;;;5075656;28;20492;-70
2023/05/01 10:31:15;;;;;;;3.67;2.03;;;21.70;99.90;;;;;;5074958;28;20833;-70
2023/05/01 10:33:42;;;;;;;6.37;2.83;;;21.60;99.90;;;;;;5074862;28;20450;-71
2023/05/01 10:36:27;;;;;;;2.17;1.90;;;21.50;99.90;;;;;;5075334;28;20404;-70
2023/05/01 10:38:53;;;;;;;2.63;1.90;;;21.70;99.90;;;;;;5076158;28;20392;-71
2023/05/01 10:41:53;;;;;;;2.33;1.87;;;21.90;99.90;;;;;;5075023;28;20534;-70
2023/05/01 10:44:22;;;;;;;2.33;1.90;;;21.80;99.90;;;;;;5075630;28;20178;-69
2023/05/01 10:46:47;;;;;;;3.97;2.70;;;21.40;99.90;;;;;;5074620;28;20431;-70
2023/05/01 10:49:13;;;;;;;6.70;2.37;;;21.60;99.90;;;;;;5076625;28;20408;-71
2023/05/01 10:52:01;;;;;;;3.80;2.20;;;21.70;99.90;;;;;;5056622;28;20205;-70
2023/05/01 10:54:28;;;;;;;2.97;2.40;;;21.90;99.90;;;;;;5074825;28;20193;-70
2023/05/01 10:56:57;;;;;;;3.00;2.73;;;22.10;99.90;;;;;;5075192;28;20401;-69
2023/05/01 10:59:23;;;;;;;3.70;2.20;;;22.00;99.90;;;;;;5075349;28;20448;-70
2023/05/01 11:01:52;;;;;;;3.17;2.30;;;22.00;99.90;;;;;;5074249;28;20667;-69
2023/05/01 11:04:21;;;;;;;3.47;1.70;;;22.00;99.90;;;;;;5057353;28;20905;-70
2023/05/01 11:07:06;;;;;;;2.90;2.27;;;22.10;99.90;;;;;;5074248;28;20439;-70
2023/05/01 11:10:01;;;;;;;2.10;1.90;;;22.40;99.90;;;;;;5074016;28;20882;-70
2023/05/01 11:12:45;;;;;;;2.97;2.27;;;22.80;99.90;;;;;;5038888;28;20456;-70
2023/05/01 11:15:32;;;;;;;7.10;2.50;;;22.80;99.90;;;;;;5074039;28;20456;-71
2023/05/01 11:18:02;;;;;;;2.53;1.80;;;22.60;99.90;;;;;;5075026;28;20411;-70
2023/05/01 11:20:28;;;;;;;2.70;1.80;;;22.70;99.90;;;;;;5074158;28;20434;-70
2023/05/01 11:22:55;;;;;;;5.43;2.63;;;23.10;99.90;;;;;;5074752;28;20424;-70
2023/05/01 11:25:26;;;;;;;6.00;2.13;;;23.20;99.90;;;;;;5074140;28;20635;-70
2023/05/01 11:27:54;;;;;;;4.00;2.07;;;23.00;99.90;;;;;;5074993;28;20446;-70
2023/05/01 11:30:21;;;;;;;6.63;2.50;;;22.70;99.90;;;;;;5073517;28;20432;-71
2023/05/01 11:32:48;;;;;;;3.13;1.90;;;22.60;99.90;;;;;;5074215;28;20420;-70
2023/05/01 11:35:27;;;;;;;3.47;2.07;;;22.70;99.90;;;;;;5074687;28;20527;-71
2023/05/01 11:37:56;;;;;;;4.77;2.30;;;22.80;99.90;;;;;;5074761;28;20430;-70
2023/05/01 11:40:26;;;;;;;4.57;2.43;;;23.10;99.90;;;;;;5054805;28;20932;-71
2023/05/01 11:43:00;;;;;;;3.00;2.00;;;23.30;99.90;;;;;;5074401;28;20452;-71
2023/05/01 11:45:26;;;;;;;5.07;2.50;;;23.60;99.90;;;;;;5073660;28;20843;-70
2023/05/01 11:47:52;;;;;;;2.93;2.20;;;23.60;99.90;;;;;;5056619;28;20412;-70
2023/05/01 11:50:20;;;;;;;2.30;2.00;;;23.30;99.90;;;;;;5073081;28;20182;-71
2023/05/01 11:52:48;;;;;;;2.70;2.00;;;23.30;99.90;;;;;;5074339;28;20916;-70
2023/05/01 11:55:17;;;;;;;3.33;2.63;;;23.20;99.90;;;;;;5074391;28;20942;-71
2023/05/01 11:57:54;;;;;;;2.40;1.80;;;23.00;99.90;;;;;;5074275;28;20407;-71
2023/05/01 12:00:28;;;;;;;6.03;3.20;;;23.50;99.90;;;;;;5072332;28;20513;-71
2023/05/01 12:03:07;;;;;;;3.30;2.17;;;24.20;99.90;;;;;;5074161;28;20515;-70
2023/05/01 12:05:35;;;;;;;4.53;2.57;;;24.90;99.90;;;;;;5073669;28;20487;-68
2023/05/01 12:08:17;;;;;;;3.40;3.10;;;24.80;99.90;;;;;;5072652;28;20440;-68
2023/05/01 12:10:44;;;;;;;4.23;1.93;;;24.40;99.90;;;;;;5070515;28;20424;-71
2023/05/01 12:13:12;;;;;;;2.57;1.83;;;24.20;99.90;;;;;;5054276;28;20597;-71
2023/05/01 12:15:43;;;;;;;2.43;2.23;;;24.40;99.90;;;;;;5073816;28;20460;-71
2023/05/01 12:18:11;;;;;;;6.03;3.33;;;24.30;99.90;;;;;;5073924;28;20393;-71
2023/05/01 12:20:50;;;;;;;5.97;3.20;;;24.40;99.90;;;;;;5072560;28;20400;-72
2023/05/01 12:23:18;;;;;;;2.33;2.13;;;24.10;99.90;;;;;;5071598;28;20486;-71
2023/05/01 12:25:44;;;;;;;2.10;1.60;;;23.80;99.90;;;;;;5055343;28;20436;-71
2023/05/01 12:28:17;;;;;;;3.57;3.23;;;23.40;99.90;;;;;;5073870;28;20404;-71
2023/05/01 12:30:44;;;;;;;2.50;2.27;;;23.30;99.90;;;;;;5054876;28;20769;-71
2023/05/01 12:33:11;;;;;;;6.50;2.07;;;23.00;99.90;;;;;;5073770;28;20473;-71
2023/05/01 12:35:38;;;;;;;5.70;1.60;;;23.20;99.90;;;;;;5072537;28;20468;-68
2023/05/01 12:38:20;;;;;;;2.57;1.90;;;23.00;99.90;;;;;;5074188;28;20413;-68
2023/05/01 12:41:07;;;;;;;2.10;1.77;;;23.00;99.90;;;;;;5072098;28;20400;-69
2023/05/01 12:43:36;;;;;;;1.93;1.73;;;22.90;99.90;;;;;;5073605;28;20519;-68
2023/05/01 12:46:04;;;;;;;2.70;1.83;;;22.90;99.90;;;;;;5073546;28;20866;-68
2023/05/01 12:48:31;;;;;;;6.80;2.50;;;22.80;99.90;;;;;;5072876;28;20400;-68
2023/05/01 12:50:57;;;;;;;1.80;1.60;;;22.70;99.90;;;;;;5072979;28;20407;-68
2023/05/01 12:53:25;;;;;;;2.60;1.80;;;22.50;99.90;;;;;;5055732;28;20424;-68
2023/05/01 12:55:53;;;;;;;2.50;2.10;;;22.40;99.90;;;;;;5072921;28;20271;-69
2023/05/01 12:58:19;;;;;;;2.43;1.80;;;22.20;99.90;;;;;;5073140;28;20486;-69
2023/05/01 13:00:48;;;;;;;7.60;2.03;;;22.10;99.90;;;;;;5072678;28;20734;-68
2023/05/01 13:03:19;;;;;;;4.67;2.23;;;21.80;99.90;;;;;;5073061;28;20455;-67